![]() |
EMODnet Physics ERDDAP
Easier access to scientific data |
log in|
Brought to you by EMODnet Physics |
| Dataset Title: | NDBC - Collection of dew point temperature (DEWT) TimeSeries - IN SITU MultiPointTimeSeriesObservation
|
| Institution: | NDBC (Dataset ID: TS_DEWT_NDBC) |
| Information: | Summary
| License
| FGDC
| ISO 19115
| Metadata
| Background
| Subset
| Data Access Form
| Make a graph
|
| Name | Last modified | Size | Description | |
|---|---|---|---|---|
| Parent Directory | - | - | ||
| 44011_TS_DEWT_011985.nc | 26-Oct-2024 17:31 | 429839 | ||
| 44011_TS_DEWT_011986.nc | 26-Oct-2024 17:31 | 424981 | ||
| 44011_TS_DEWT_011987.nc | 26-Oct-2024 17:31 | 444189 | ||
| 44011_TS_DEWT_011988.nc | 26-Oct-2024 17:31 | 438242 | ||
| 44011_TS_DEWT_011989.nc | 26-Oct-2024 17:31 | 429913 | ||
| 44011_TS_DEWT_011990.nc | 26-Oct-2024 17:31 | 449617 | ||
| 44011_TS_DEWT_011991.nc | 26-Oct-2024 17:31 | 447540 | ||
| 44011_TS_DEWT_011992.nc | 26-Oct-2024 17:31 | 451211 | ||
| 44011_TS_DEWT_011994.nc | 26-Oct-2024 17:31 | 451556 | ||
| 44011_TS_DEWT_011995.nc | 26-Oct-2024 17:31 | 1266148 | ||
| 44011_TS_DEWT_011996.nc | 26-Oct-2024 17:31 | 467490 | ||
| 44011_TS_DEWT_011997.nc | 26-Oct-2024 17:31 | 1265099 | ||
| 44011_TS_DEWT_011998.nc | 26-Oct-2024 17:31 | 1266360 | ||
| 44011_TS_DEWT_011999.nc | 26-Oct-2024 17:31 | 1266528 | ||
| 44011_TS_DEWT_012000.nc | 26-Oct-2024 17:31 | 1143311 | ||
| 44011_TS_DEWT_012001.nc | 26-Oct-2024 17:31 | 5815155 | ||
| 44011_TS_DEWT_012003.nc | 26-Oct-2024 17:31 | 429368 | ||
| 44011_TS_DEWT_012004.nc | 26-Oct-2024 17:31 | 429353 | ||
| 44011_TS_DEWT_012005.nc | 26-Oct-2024 17:32 | 429246 | ||
| 44011_TS_DEWT_012006.nc | 26-Oct-2024 17:32 | 448892 | ||
| 44011_TS_DEWT_012007.nc | 26-Oct-2024 17:32 | 449994 | ||
| 44011_TS_DEWT_012008.nc | 26-Oct-2024 17:32 | 429338 | ||
| 44011_TS_DEWT_012009.nc | 26-Oct-2024 17:32 | 429369 | ||
| 44011_TS_DEWT_012012.nc | 26-Oct-2024 17:32 | 426568 | ||
| 44011_TS_DEWT_012013.nc | 26-Oct-2024 17:32 | 429357 | ||
| 44011_TS_DEWT_012016.nc | 26-Oct-2024 17:32 | 429362 | ||
| 44011_TS_DEWT_012017.nc | 26-Oct-2024 17:32 | 448410 | ||
| 44011_TS_DEWT_012018.nc | 26-Oct-2024 17:32 | 449279 | ||
| 44011_TS_DEWT_012020.nc | 26-Oct-2024 17:32 | 449059 | ||
| 44011_TS_DEWT_012022.nc | 26-Oct-2024 17:32 | 449290 | ||
| 44011_TS_DEWT_012023.nc | 26-Oct-2024 17:32 | 449483 | ||
| 44011_TS_DEWT_012025.nc | 07-Feb-2025 09:30 | 449819 | ||
| 44011_TS_DEWT_012026.nc | 05-Feb-2026 04:45 | 449704 | ||
| 44011_TS_DEWT_021985.nc | 26-Oct-2024 17:32 | 429569 | ||
| 44011_TS_DEWT_021986.nc | 26-Oct-2024 17:32 | 429567 | ||
| 44011_TS_DEWT_021987.nc | 26-Oct-2024 17:32 | 422380 | ||
| 44011_TS_DEWT_021988.nc | 26-Oct-2024 17:32 | 429522 | ||
| 44011_TS_DEWT_021989.nc | 26-Oct-2024 17:32 | 450574 | ||
| 44011_TS_DEWT_021990.nc | 26-Oct-2024 17:32 | 450710 | ||
| 44011_TS_DEWT_021991.nc | 26-Oct-2024 17:32 | 429567 | ||
| 44011_TS_DEWT_021992.nc | 26-Oct-2024 17:32 | 449502 | ||
| 44011_TS_DEWT_021994.nc | 26-Oct-2024 17:32 | 446091 | ||
| 44011_TS_DEWT_021995.nc | 26-Oct-2024 17:32 | 450415 | ||
| 44011_TS_DEWT_021996.nc | 26-Oct-2024 17:32 | 449545 | ||
| 44011_TS_DEWT_021997.nc | 26-Oct-2024 17:33 | 1111103 | ||
| 44011_TS_DEWT_021998.nc | 26-Oct-2024 17:33 | 1110731 | ||
| 44011_TS_DEWT_021999.nc | 26-Oct-2024 17:33 | 1104133 | ||
| 44011_TS_DEWT_022001.nc | 26-Oct-2024 17:33 | 1113594 | ||
| 44011_TS_DEWT_022002.nc | 26-Oct-2024 17:33 | 1111407 | ||
| 44011_TS_DEWT_022003.nc | 26-Oct-2024 17:33 | 994832 | ||
| 44011_TS_DEWT_022004.nc | 26-Oct-2024 17:33 | 5444946 | ||
| 44011_TS_DEWT_022006.nc | 26-Oct-2024 17:33 | 429686 | ||
| 44011_TS_DEWT_022007.nc | 26-Oct-2024 17:33 | 429692 | ||
| 44011_TS_DEWT_022008.nc | 26-Oct-2024 17:33 | 429688 | ||
| 44011_TS_DEWT_022009.nc | 26-Oct-2024 17:33 | 451212 | ||
| 44011_TS_DEWT_022012.nc | 26-Oct-2024 17:33 | 435580 | ||
| 44011_TS_DEWT_022016.nc | 26-Oct-2024 17:33 | 429692 | ||
| 44011_TS_DEWT_022017.nc | 26-Oct-2024 17:33 | 429684 | ||
| 44011_TS_DEWT_022018.nc | 26-Oct-2024 17:33 | 429047 | ||
| 44011_TS_DEWT_022020.nc | 26-Oct-2024 17:33 | 427289 | ||
| 44011_TS_DEWT_022022.nc | 26-Oct-2024 17:33 | 423424 | ||
| 44011_TS_DEWT_022023.nc | 26-Oct-2024 17:33 | 451691 | ||
| 44011_TS_DEWT_022025.nc | 01-Mar-2025 06:14 | 450460 | ||
| 44011_TS_DEWT_022026.nc | 01-Mar-2026 05:35 | 450204 | ||
| 44011_TS_DEWT_031985.nc | 26-Oct-2024 17:33 | 451292 | ||
| 44011_TS_DEWT_031987.nc | 26-Oct-2024 17:33 | 451664 | ||
| 44011_TS_DEWT_031988.nc | 26-Oct-2024 17:33 | 449806 | ||
| 44011_TS_DEWT_031989.nc | 26-Oct-2024 17:33 | 451031 | ||
| 44011_TS_DEWT_031990.nc | 26-Oct-2024 17:34 | 429887 | ||
| 44011_TS_DEWT_031991.nc | 26-Oct-2024 17:34 | 429910 | ||
| 44011_TS_DEWT_031992.nc | 26-Oct-2024 17:34 | 423223 | ||
| 44011_TS_DEWT_031994.nc | 26-Oct-2024 17:34 | 450066 | ||
| 44011_TS_DEWT_031995.nc | 26-Oct-2024 17:34 | 449904 | ||
| 44011_TS_DEWT_031996.nc | 26-Oct-2024 17:34 | 429913 | ||
| 44011_TS_DEWT_031997.nc | 26-Oct-2024 17:34 | 450183 | ||
| 44011_TS_DEWT_031998.nc | 26-Oct-2024 17:34 | 450855 | ||
| 44011_TS_DEWT_031999.nc | 26-Oct-2024 17:34 | 450326 | ||
| 44011_TS_DEWT_032000.nc | 26-Oct-2024 17:34 | 451120 | ||
| 44011_TS_DEWT_032001.nc | 26-Oct-2024 17:34 | 1260722 | ||
| 44011_TS_DEWT_032002.nc | 26-Oct-2024 17:34 | 1265462 | ||
| 44011_TS_DEWT_032003.nc | 26-Oct-2024 17:34 | 1268351 | ||
| 44011_TS_DEWT_032004.nc | 26-Oct-2024 17:34 | 1263526 | ||
| 44011_TS_DEWT_032006.nc | 26-Oct-2024 17:34 | 1268304 | ||
| 44011_TS_DEWT_032007.nc | 26-Oct-2024 17:34 | 1143243 | ||
| 44011_TS_DEWT_032008.nc | 26-Oct-2024 17:34 | 5640660 | ||
| 44011_TS_DEWT_032009.nc | 26-Oct-2024 17:34 | 451576 | ||
| 44011_TS_DEWT_032012.nc | 26-Oct-2024 17:34 | 451615 | ||
| 44011_TS_DEWT_032016.nc | 26-Oct-2024 17:34 | 438712 | ||
| 44011_TS_DEWT_032017.nc | 26-Oct-2024 17:34 | 450756 | ||
| 44011_TS_DEWT_032018.nc | 26-Oct-2024 17:34 | 450167 | ||
| 44011_TS_DEWT_032020.nc | 26-Oct-2024 17:34 | 450149 | ||
| 44011_TS_DEWT_032022.nc | 26-Oct-2024 17:35 | 451245 | ||
| 44011_TS_DEWT_032023.nc | 26-Oct-2024 17:35 | 443989 | ||
| 44011_TS_DEWT_032025.nc | 02-Apr-2025 04:52 | 451148 | ||
| 44011_TS_DEWT_032026.nc | 23-Mar-2026 06:55 | 450991 | ||
| 44011_TS_DEWT_041985.nc | 26-Oct-2024 17:35 | 450593 | ||
| 44011_TS_DEWT_041986.nc | 26-Oct-2024 17:35 | 450255 | ||
| 44011_TS_DEWT_041987.nc | 26-Oct-2024 17:35 | 450903 | ||
| 44011_TS_DEWT_041989.nc | 26-Oct-2024 17:35 | 449886 | ||
| 44011_TS_DEWT_041990.nc | 26-Oct-2024 17:35 | 450606 | ||
| 44011_TS_DEWT_041991.nc | 26-Oct-2024 17:35 | 450483 | ||
| 44011_TS_DEWT_041992.nc | 26-Oct-2024 17:35 | 451427 | ||
| 44011_TS_DEWT_041993.nc | 26-Oct-2024 17:35 | 1258778 | ||
| 44011_TS_DEWT_041994.nc | 26-Oct-2024 17:35 | 1254734 | ||
| 44011_TS_DEWT_041995.nc | 26-Oct-2024 17:35 | 1263535 | ||
| 44011_TS_DEWT_041997.nc | 26-Oct-2024 17:35 | 1263113 | ||
| 44011_TS_DEWT_041998.nc | 26-Oct-2024 17:35 | 1268978 | ||
| 44011_TS_DEWT_041999.nc | 26-Oct-2024 17:35 | 1095066 | ||
| 44011_TS_DEWT_042000.nc | 26-Oct-2024 17:35 | 443458 | ||
| 44011_TS_DEWT_042001.nc | 26-Oct-2024 17:35 | 448220 | ||
| 44011_TS_DEWT_042002.nc | 26-Oct-2024 17:35 | 447506 | ||
| 44011_TS_DEWT_042003.nc | 26-Oct-2024 17:35 | 448373 | ||
| 44011_TS_DEWT_042004.nc | 26-Oct-2024 17:35 | 447932 | ||
| 44011_TS_DEWT_042006.nc | 26-Oct-2024 17:35 | 448417 | ||
| 44011_TS_DEWT_042007.nc | 26-Oct-2024 17:35 | 447500 | ||
| 44011_TS_DEWT_042008.nc | 26-Oct-2024 17:35 | 447254 | ||
| 44011_TS_DEWT_042009.nc | 26-Oct-2024 17:35 | 441657 | ||
| 44011_TS_DEWT_042010.nc | 26-Oct-2024 17:35 | 447885 | ||
| 44011_TS_DEWT_042012.nc | 26-Oct-2024 17:35 | 447844 | ||
| 44011_TS_DEWT_042015.nc | 26-Oct-2024 17:36 | 447766 | ||
| 44011_TS_DEWT_042016.nc | 26-Oct-2024 17:36 | 447549 | ||
| 44011_TS_DEWT_042017.nc | 26-Oct-2024 17:36 | 447158 | ||
| 44011_TS_DEWT_042020.nc | 26-Oct-2024 17:36 | 446521 | ||
| 44011_TS_DEWT_042022.nc | 26-Oct-2024 17:36 | 964080 | ||
| 44011_TS_DEWT_042025.nc | 01-May-2025 03:55 | 1100450 | ||
| 44011_TS_DEWT_051984.nc | 26-Oct-2024 17:36 | 1025783 | ||
| 44011_TS_DEWT_051985.nc | 26-Oct-2024 17:36 | 1027388 | ||
| 44011_TS_DEWT_051986.nc | 26-Oct-2024 17:36 | 1024993 | ||
| 44011_TS_DEWT_051987.nc | 26-Oct-2024 17:36 | 4941846 | ||
| 44011_TS_DEWT_051988.nc | 26-Oct-2024 17:36 | 451722 | ||
| 44011_TS_DEWT_051989.nc | 26-Oct-2024 17:36 | 449748 | ||
| 44011_TS_DEWT_051990.nc | 26-Oct-2024 17:36 | 451044 | ||
| 44011_TS_DEWT_051991.nc | 26-Oct-2024 17:36 | 450951 | ||
| 44011_TS_DEWT_051992.nc | 26-Oct-2024 17:36 | 451011 | ||
| 44011_TS_DEWT_051993.nc | 26-Oct-2024 17:36 | 450705 | ||
| 44011_TS_DEWT_051994.nc | 26-Oct-2024 17:36 | 450428 | ||
| 44011_TS_DEWT_051995.nc | 26-Oct-2024 17:36 | 450493 | ||
| 44011_TS_DEWT_051996.nc | 26-Oct-2024 17:36 | 450482 | ||
| 44011_TS_DEWT_051997.nc | 26-Oct-2024 17:36 | 449739 | ||
| 44011_TS_DEWT_051998.nc | 26-Oct-2024 17:36 | 449841 | ||
| 44011_TS_DEWT_051999.nc | 26-Oct-2024 17:36 | 451512 | ||
| 44011_TS_DEWT_052000.nc | 26-Oct-2024 17:37 | 451332 | ||
| 44011_TS_DEWT_052001.nc | 26-Oct-2024 17:37 | 667198 | ||
| 44011_TS_DEWT_052002.nc | 26-Oct-2024 17:37 | 1212325 | ||
| 44011_TS_DEWT_052003.nc | 26-Oct-2024 17:37 | 1262331 | ||
| 44011_TS_DEWT_052004.nc | 26-Oct-2024 17:37 | 1262534 | ||
| 44011_TS_DEWT_052006.nc | 26-Oct-2024 17:37 | 1262610 | ||
| 44011_TS_DEWT_052007.nc | 26-Oct-2024 17:37 | 1262720 | ||
| 44011_TS_DEWT_052008.nc | 26-Oct-2024 17:37 | 4164356 | ||
| 44011_TS_DEWT_052009.nc | 26-Oct-2024 17:37 | 449769 | ||
| 44011_TS_DEWT_052010.nc | 26-Oct-2024 17:37 | 448847 | ||
| 44011_TS_DEWT_052012.nc | 26-Oct-2024 17:37 | 448192 | ||
| 44011_TS_DEWT_052015.nc | 26-Oct-2024 17:37 | 450305 | ||
| 44011_TS_DEWT_052016.nc | 26-Oct-2024 17:37 | 449352 | ||
| 44011_TS_DEWT_052017.nc | 26-Oct-2024 17:37 | 450513 | ||
| 44011_TS_DEWT_052019.nc | 26-Oct-2024 17:37 | 450095 | ||
| 44011_TS_DEWT_052020.nc | 26-Oct-2024 17:37 | 448394 | ||
| 44011_TS_DEWT_052022.nc | 26-Oct-2024 17:37 | 449321 | ||
| 44011_TS_DEWT_052023.nc | 26-Oct-2024 17:37 | 448954 | ||
| 44011_TS_DEWT_052025.nc | 01-Jun-2025 03:57 | 448441 | ||
| 44011_TS_DEWT_061984.nc | 26-Oct-2024 17:37 | 450466 | ||
| 44011_TS_DEWT_061985.nc | 26-Oct-2024 17:38 | 449679 | ||
| 44011_TS_DEWT_061986.nc | 26-Oct-2024 17:38 | 1113695 | ||
| 44011_TS_DEWT_061987.nc | 26-Oct-2024 17:38 | 1088112 | ||
| 44011_TS_DEWT_061988.nc | 26-Oct-2024 17:38 | 1110238 | ||
| 44011_TS_DEWT_061989.nc | 26-Oct-2024 17:38 | 1109967 | ||
| 44011_TS_DEWT_061990.nc | 26-Oct-2024 17:38 | 1110756 | ||
| 44011_TS_DEWT_061991.nc | 26-Oct-2024 17:38 | 1111141 | ||
| 44011_TS_DEWT_061992.nc | 26-Oct-2024 17:38 | 449955 | ||
| 44011_TS_DEWT_061993.nc | 26-Oct-2024 17:38 | 444178 | ||
| 44011_TS_DEWT_061994.nc | 26-Oct-2024 17:38 | 450655 | ||
| 44011_TS_DEWT_061995.nc | 26-Oct-2024 17:38 | 449993 | ||
| 44011_TS_DEWT_061996.nc | 26-Oct-2024 17:38 | 449306 | ||
| 44011_TS_DEWT_061997.nc | 26-Oct-2024 17:38 | 451247 | ||
| 44011_TS_DEWT_061998.nc | 26-Oct-2024 17:38 | 431244 | ||
| 44011_TS_DEWT_061999.nc | 26-Oct-2024 17:38 | 449359 | ||
| 44011_TS_DEWT_062000.nc | 26-Oct-2024 17:39 | 450169 | ||
| 44011_TS_DEWT_062001.nc | 26-Oct-2024 17:39 | 450019 | ||
| 44011_TS_DEWT_062002.nc | 26-Oct-2024 17:39 | 450134 | ||
| 44011_TS_DEWT_062003.nc | 26-Oct-2024 17:39 | 450213 | ||
| 44011_TS_DEWT_062004.nc | 26-Oct-2024 17:39 | 433020 | ||
| 44011_TS_DEWT_062006.nc | 26-Oct-2024 17:39 | 451068 | ||
| 44011_TS_DEWT_062007.nc | 26-Oct-2024 17:39 | 449906 | ||
| 44011_TS_DEWT_062008.nc | 26-Oct-2024 17:39 | 1265323 | ||
| 44011_TS_DEWT_062009.nc | 26-Oct-2024 17:39 | 1262344 | ||
| 44011_TS_DEWT_062010.nc | 26-Oct-2024 17:39 | 1265396 | ||
| 44011_TS_DEWT_062012.nc | 26-Oct-2024 17:39 | 1263836 | ||
| 44011_TS_DEWT_062015.nc | 26-Oct-2024 17:39 | 1264105 | ||
| 44011_TS_DEWT_062016.nc | 26-Oct-2024 17:39 | 678775 | ||
| 44011_TS_DEWT_062017.nc | 26-Oct-2024 17:39 | 1268039 | ||
| 44011_TS_DEWT_062019.nc | 26-Oct-2024 17:39 | 430047 | ||
| 44011_TS_DEWT_062020.nc | 26-Oct-2024 17:39 | 448852 | ||
| 44011_TS_DEWT_062021.nc | 26-Oct-2024 17:39 | 448931 | ||
| 44011_TS_DEWT_062022.nc | 26-Oct-2024 17:39 | 448838 | ||
| 44011_TS_DEWT_062023.nc | 26-Oct-2024 17:39 | 448861 | ||
| 44011_TS_DEWT_062025.nc | 01-Jul-2025 03:58 | 448950 | ||
| 44011_TS_DEWT_071984.nc | 26-Oct-2024 17:39 | 450558 | ||
| 44011_TS_DEWT_071985.nc | 26-Oct-2024 17:40 | 449871 | ||
| 44011_TS_DEWT_071986.nc | 26-Oct-2024 17:40 | 449962 | ||
| 44011_TS_DEWT_071987.nc | 26-Oct-2024 17:40 | 448445 | ||
| 44011_TS_DEWT_071988.nc | 26-Oct-2024 17:40 | 448952 | ||
| 44011_TS_DEWT_071989.nc | 26-Oct-2024 17:40 | 448962 | ||
| 44011_TS_DEWT_071990.nc | 26-Oct-2024 17:40 | 448271 | ||
| 44011_TS_DEWT_071992.nc | 26-Oct-2024 17:40 | 449689 | ||
| 44011_TS_DEWT_071993.nc | 26-Oct-2024 17:40 | 441011 | ||
| 44011_TS_DEWT_071994.nc | 26-Oct-2024 17:40 | 450499 | ||
| 44011_TS_DEWT_071995.nc | 26-Oct-2024 17:40 | 672481 | ||
| 44011_TS_DEWT_071996.nc | 26-Oct-2024 17:40 | 1029833 | ||
| 44011_TS_DEWT_071997.nc | 26-Oct-2024 17:40 | 1114430 | ||
| 44011_TS_DEWT_071998.nc | 26-Oct-2024 17:40 | 1108193 | ||
| 44011_TS_DEWT_071999.nc | 26-Oct-2024 17:40 | 1114358 | ||
| 44011_TS_DEWT_072000.nc | 26-Oct-2024 17:40 | 1114849 | ||
| 44011_TS_DEWT_072001.nc | 26-Oct-2024 17:40 | 1111252 | ||
| 44011_TS_DEWT_072002.nc | 26-Oct-2024 17:40 | 449693 | ||
| 44011_TS_DEWT_072003.nc | 26-Oct-2024 17:40 | 443474 | ||
| 44011_TS_DEWT_072004.nc | 26-Oct-2024 17:40 | 449421 | ||
| 44011_TS_DEWT_072006.nc | 26-Oct-2024 17:40 | 451719 | ||
| 44011_TS_DEWT_072007.nc | 26-Oct-2024 17:40 | 449791 | ||
| 44011_TS_DEWT_072008.nc | 26-Oct-2024 17:41 | 449745 | ||
| 44011_TS_DEWT_072009.nc | 26-Oct-2024 17:41 | 450496 | ||
| 44011_TS_DEWT_072010.nc | 26-Oct-2024 17:41 | 450629 | ||
| 44011_TS_DEWT_072012.nc | 26-Oct-2024 17:41 | 450500 | ||
| 44011_TS_DEWT_072015.nc | 26-Oct-2024 17:41 | 450204 | ||
| 44011_TS_DEWT_072016.nc | 26-Oct-2024 17:41 | 450023 | ||
| 44011_TS_DEWT_072017.nc | 26-Oct-2024 17:41 | 449742 | ||
| 44011_TS_DEWT_072019.nc | 26-Oct-2024 17:41 | 451399 | ||
| 44011_TS_DEWT_072020.nc | 26-Oct-2024 17:41 | 449776 | ||
| 44011_TS_DEWT_072021.nc | 26-Oct-2024 17:41 | 437023 | ||
| 44011_TS_DEWT_072022.nc | 26-Oct-2024 17:41 | 450901 | ||
| 44011_TS_DEWT_072023.nc | 26-Oct-2024 17:41 | 451168 | ||
| 44011_TS_DEWT_072025.nc | 01-Aug-2025 04:07 | 450717 | ||
| 44011_TS_DEWT_081984.nc | 26-Oct-2024 17:41 | 1268056 | ||
| 44011_TS_DEWT_081985.nc | 26-Oct-2024 17:41 | 1092382 | ||
| 44011_TS_DEWT_081986.nc | 26-Oct-2024 17:41 | 456254 | ||
| 44011_TS_DEWT_081987.nc | 26-Oct-2024 17:41 | 1262447 | ||
| 44011_TS_DEWT_081988.nc | 26-Oct-2024 17:41 | 1263757 | ||
| 44011_TS_DEWT_081989.nc | 26-Oct-2024 17:42 | 1263914 | ||
| 44011_TS_DEWT_081990.nc | 26-Oct-2024 17:42 | 1105322 | ||
| 44011_TS_DEWT_081992.nc | 26-Oct-2024 17:42 | 450722 | ||
| 44011_TS_DEWT_081993.nc | 26-Oct-2024 17:42 | 451065 | ||
| 44011_TS_DEWT_081994.nc | 26-Oct-2024 17:42 | 449423 | ||
| 44011_TS_DEWT_081995.nc | 26-Oct-2024 17:42 | 451103 | ||
| 44011_TS_DEWT_081996.nc | 26-Oct-2024 17:42 | 449783 | ||
| 44011_TS_DEWT_081997.nc | 26-Oct-2024 17:42 | 449887 | ||
| 44011_TS_DEWT_081998.nc | 26-Oct-2024 17:42 | 450546 | ||
| 44011_TS_DEWT_081999.nc | 26-Oct-2024 17:42 | 451233 | ||
| 44011_TS_DEWT_082000.nc | 26-Oct-2024 17:42 | 450118 | ||
| 44011_TS_DEWT_082001.nc | 26-Oct-2024 17:42 | 450312 | ||
| 44011_TS_DEWT_082002.nc | 26-Oct-2024 17:42 | 449678 | ||
| 44011_TS_DEWT_082003.nc | 26-Oct-2024 17:42 | 450269 | ||
| 44011_TS_DEWT_082004.nc | 26-Oct-2024 17:42 | 450284 | ||
| 44011_TS_DEWT_082006.nc | 26-Oct-2024 17:42 | 451431 | ||
| 44011_TS_DEWT_082007.nc | 26-Oct-2024 17:42 | 450288 | ||
| 44011_TS_DEWT_082008.nc | 26-Oct-2024 17:42 | 451187 | ||
| 44011_TS_DEWT_082009.nc | 26-Oct-2024 17:42 | 450466 | ||
| 44011_TS_DEWT_082010.nc | 26-Oct-2024 17:42 | 451137 | ||
| 44011_TS_DEWT_082012.nc | 26-Oct-2024 17:42 | 665447 | ||
| 44011_TS_DEWT_082015.nc | 26-Oct-2024 17:43 | 1266268 | ||
| 44011_TS_DEWT_082016.nc | 26-Oct-2024 17:43 | 1263745 | ||
| 44011_TS_DEWT_082017.nc | 26-Oct-2024 17:43 | 1266192 | ||
| 44011_TS_DEWT_082019.nc | 26-Oct-2024 17:43 | 1263121 | ||
| 44011_TS_DEWT_082021.nc | 26-Oct-2024 17:43 | 1265176 | ||
| 44011_TS_DEWT_082022.nc | 26-Oct-2024 17:43 | 1267119 | ||
| 44011_TS_DEWT_082023.nc | 26-Oct-2024 17:43 | 449907 | ||
| 44011_TS_DEWT_082025.nc | 01-Sep-2025 04:12 | 449467 | ||
| 44011_TS_DEWT_091984.nc | 26-Oct-2024 17:43 | 448972 | ||
| 44011_TS_DEWT_091985.nc | 26-Oct-2024 17:43 | 448611 | ||
| 44011_TS_DEWT_091986.nc | 26-Oct-2024 17:43 | 450131 | ||
| 44011_TS_DEWT_091987.nc | 26-Oct-2024 17:43 | 449470 | ||
| 44011_TS_DEWT_091988.nc | 26-Oct-2024 17:43 | 450376 | ||
| 44011_TS_DEWT_091989.nc | 26-Oct-2024 17:43 | 449563 | ||
| 44011_TS_DEWT_091990.nc | 26-Oct-2024 17:43 | 450242 | ||
| 44011_TS_DEWT_091991.nc | 26-Oct-2024 17:44 | 449783 | ||
| 44011_TS_DEWT_091992.nc | 26-Oct-2024 17:44 | 449379 | ||
| 44011_TS_DEWT_091993.nc | 26-Oct-2024 17:44 | 449375 | ||
| 44011_TS_DEWT_091994.nc | 26-Oct-2024 17:44 | 449234 | ||
| 44011_TS_DEWT_091995.nc | 26-Oct-2024 17:44 | 448421 | ||
| 44011_TS_DEWT_091996.nc | 26-Oct-2024 17:44 | 450064 | ||
| 44011_TS_DEWT_091997.nc | 26-Oct-2024 17:44 | 450807 | ||
| 44011_TS_DEWT_091998.nc | 26-Oct-2024 17:44 | 449504 | ||
| 44011_TS_DEWT_091999.nc | 26-Oct-2024 17:44 | 449031 | ||
| 44011_TS_DEWT_092000.nc | 26-Oct-2024 17:44 | 1112397 | ||
| 44011_TS_DEWT_092001.nc | 26-Oct-2024 17:44 | 1111888 | ||
| 44011_TS_DEWT_092002.nc | 26-Oct-2024 17:44 | 438353 | ||
| 44011_TS_DEWT_092003.nc | 26-Oct-2024 17:44 | 1112196 | ||
| 44011_TS_DEWT_092004.nc | 26-Oct-2024 17:44 | 1113815 | ||
| 44011_TS_DEWT_092006.nc | 26-Oct-2024 17:44 | 1110058 | ||
| 44011_TS_DEWT_092007.nc | 26-Oct-2024 17:44 | 1113218 | ||
| 44011_TS_DEWT_092008.nc | 26-Oct-2024 17:44 | 1102006 | ||
| 44011_TS_DEWT_092009.nc | 26-Oct-2024 17:44 | 450787 | ||
| 44011_TS_DEWT_092012.nc | 26-Oct-2024 17:44 | 450324 | ||
| 44011_TS_DEWT_092015.nc | 26-Oct-2024 17:44 | 451474 | ||
| 44011_TS_DEWT_092016.nc | 26-Oct-2024 17:44 | 451414 | ||
| 44011_TS_DEWT_092017.nc | 26-Oct-2024 17:44 | 450660 | ||
| 44011_TS_DEWT_092019.nc | 26-Oct-2024 17:45 | 450662 | ||
| 44011_TS_DEWT_092021.nc | 26-Oct-2024 17:45 | 450447 | ||
| 44011_TS_DEWT_092022.nc | 26-Oct-2024 17:45 | 450175 | ||
| 44011_TS_DEWT_092023.nc | 26-Oct-2024 17:45 | 449774 | ||
| 44011_TS_DEWT_092025.nc | 01-Oct-2025 03:49 | 451373 | ||
| 44011_TS_DEWT_101984.nc | 26-Oct-2024 17:45 | 450425 | ||
| 44011_TS_DEWT_101985.nc | 26-Oct-2024 17:45 | 438309 | ||
| 44011_TS_DEWT_101986.nc | 26-Oct-2024 17:45 | 450270 | ||
| 44011_TS_DEWT_101987.nc | 26-Oct-2024 17:45 | 450130 | ||
| 44011_TS_DEWT_101988.nc | 26-Oct-2024 17:45 | 449670 | ||
| 44011_TS_DEWT_101989.nc | 26-Oct-2024 17:45 | 450134 | ||
| 44011_TS_DEWT_101990.nc | 26-Oct-2024 17:45 | 450750 | ||
| 44011_TS_DEWT_101991.nc | 26-Oct-2024 17:45 | 450821 | ||
| 44011_TS_DEWT_101992.nc | 26-Oct-2024 17:45 | 431841 | ||
| 44011_TS_DEWT_101993.nc | 26-Oct-2024 17:45 | 1261615 | ||
| 44011_TS_DEWT_101994.nc | 26-Oct-2024 17:45 | 1262889 | ||
| 44011_TS_DEWT_101995.nc | 26-Oct-2024 17:45 | 1266376 | ||
| 44011_TS_DEWT_101996.nc | 26-Oct-2024 17:45 | 1264883 | ||
| 44011_TS_DEWT_101997.nc | 26-Oct-2024 17:45 | 627643 | ||
| 44011_TS_DEWT_101998.nc | 26-Oct-2024 17:46 | 1267268 | ||
| 44011_TS_DEWT_101999.nc | 26-Oct-2024 17:46 | 1267757 | ||
| 44011_TS_DEWT_102000.nc | 26-Oct-2024 17:46 | 449472 | ||
| 44011_TS_DEWT_102001.nc | 26-Oct-2024 17:46 | 426924 | ||
| 44011_TS_DEWT_102002.nc | 26-Oct-2024 17:46 | 450023 | ||
| 44011_TS_DEWT_102003.nc | 26-Oct-2024 17:46 | 448726 | ||
| 44011_TS_DEWT_102004.nc | 26-Oct-2024 17:46 | 448872 | ||
| 44011_TS_DEWT_102006.nc | 26-Oct-2024 17:46 | 448832 | ||
| 44011_TS_DEWT_102007.nc | 26-Oct-2024 17:46 | 450423 | ||
| 44011_TS_DEWT_102008.nc | 26-Oct-2024 17:46 | 449816 | ||
| 44011_TS_DEWT_102011.nc | 26-Oct-2024 17:46 | 449150 | ||
| 44011_TS_DEWT_102012.nc | 26-Oct-2024 17:46 | 449936 | ||
| 44011_TS_DEWT_102015.nc | 26-Oct-2024 17:46 | 450558 | ||
| 44011_TS_DEWT_102016.nc | 26-Oct-2024 17:46 | 449446 | ||
| 44011_TS_DEWT_102017.nc | 26-Oct-2024 17:46 | 450544 | ||
| 44011_TS_DEWT_102019.nc | 26-Oct-2024 17:46 | 450344 | ||
| 44011_TS_DEWT_102021.nc | 26-Oct-2024 17:47 | 448330 | ||
| 44011_TS_DEWT_102022.nc | 26-Oct-2024 17:47 | 450001 | ||
| 44011_TS_DEWT_102023.nc | 26-Oct-2024 17:47 | 449925 | ||
| 44011_TS_DEWT_102025.nc | 01-Nov-2025 05:32 | 450386 | ||
| 44011_TS_DEWT_111984.nc | 26-Oct-2024 17:47 | 1112818 | ||
| 44011_TS_DEWT_111985.nc | 26-Oct-2024 17:47 | 1114133 | ||
| 44011_TS_DEWT_111986.nc | 26-Oct-2024 17:47 | 1109644 | ||
| 44011_TS_DEWT_111987.nc | 26-Oct-2024 17:47 | 1113050 | ||
| 44011_TS_DEWT_111988.nc | 26-Oct-2024 17:47 | 1112399 | ||
| 44011_TS_DEWT_111989.nc | 26-Oct-2024 17:47 | 1113372 | ||
| 44011_TS_DEWT_111990.nc | 26-Oct-2024 17:47 | 429713 | ||
| 44011_TS_DEWT_111991.nc | 26-Oct-2024 17:47 | 450694 | ||
| 44011_TS_DEWT_111992.nc | 26-Oct-2024 17:47 | 447074 | ||
| 44011_TS_DEWT_111994.nc | 26-Oct-2024 17:47 | 449907 | ||
| 44011_TS_DEWT_111995.nc | 26-Oct-2024 17:47 | 451075 | ||
| 44011_TS_DEWT_111996.nc | 26-Oct-2024 17:47 | 451322 | ||
| 44011_TS_DEWT_111997.nc | 26-Oct-2024 17:47 | 450534 | ||
| 44011_TS_DEWT_111998.nc | 26-Oct-2024 17:47 | 449928 | ||
| 44011_TS_DEWT_111999.nc | 26-Oct-2024 17:47 | 450583 | ||
| 44011_TS_DEWT_112000.nc | 26-Oct-2024 17:48 | 451087 | ||
| 44011_TS_DEWT_112001.nc | 26-Oct-2024 17:48 | 449106 | ||
| 44011_TS_DEWT_112002.nc | 26-Oct-2024 17:48 | 450667 | ||
| 44011_TS_DEWT_112003.nc | 26-Oct-2024 17:48 | 450303 | ||
| 44011_TS_DEWT_112004.nc | 26-Oct-2024 17:48 | 450559 | ||
| 44011_TS_DEWT_112006.nc | 26-Oct-2024 17:48 | 450024 | ||
| 44011_TS_DEWT_112007.nc | 26-Oct-2024 17:48 | 450053 | ||
| 44011_TS_DEWT_112008.nc | 26-Oct-2024 17:48 | 451213 | ||
| 44011_TS_DEWT_112011.nc | 26-Oct-2024 17:48 | 448163 | ||
| 44011_TS_DEWT_112012.nc | 26-Oct-2024 17:48 | 450588 | ||
| 44011_TS_DEWT_112015.nc | 26-Oct-2024 17:48 | 1257750 | ||
| 44011_TS_DEWT_112016.nc | 26-Oct-2024 17:48 | 1263077 | ||
| 44011_TS_DEWT_112017.nc | 26-Oct-2024 17:48 | 1259746 | ||
| 44011_TS_DEWT_112019.nc | 26-Oct-2024 17:48 | 1260460 | ||
| 44011_TS_DEWT_112021.nc | 26-Oct-2024 17:48 | 1265652 | ||
| 44011_TS_DEWT_112022.nc | 26-Oct-2024 17:48 | 1217207 | ||
| 44011_TS_DEWT_112023.nc | 26-Oct-2024 17:48 | 427756 | ||
| 44011_TS_DEWT_112024.nc | 17-Jan-2025 14:24 | 429363 | ||
| 44011_TS_DEWT_112025.nc | 01-Dec-2025 05:50 | 421090 | ||
| 44011_TS_DEWT_121984.nc | 26-Oct-2024 17:48 | 423219 | ||
| 44011_TS_DEWT_121985.nc | 26-Oct-2024 17:48 | 427869 | ||
| 44011_TS_DEWT_121986.nc | 26-Oct-2024 17:48 | 588142 | ||
| 44011_TS_DEWT_121987.nc | 26-Oct-2024 17:48 | 588212 | ||
| 44011_TS_DEWT_121988.nc | 26-Oct-2024 17:48 | 588207 | ||
| 44011_TS_DEWT_121989.nc | 26-Oct-2024 17:49 | 587915 | ||
| 44011_TS_DEWT_121990.nc | 26-Oct-2024 17:49 | 588079 | ||
| 44011_TS_DEWT_121991.nc | 26-Oct-2024 17:49 | 587763 | ||
| 44011_TS_DEWT_121994.nc | 26-Oct-2024 17:49 | 436943 | ||
| 44011_TS_DEWT_121995.nc | 26-Oct-2024 17:49 | 628425 | ||
| 44011_TS_DEWT_121996.nc | 26-Oct-2024 17:49 | 472061 | ||
| 44011_TS_DEWT_121997.nc | 26-Oct-2024 17:49 | 3907110 | ||
| 44011_TS_DEWT_121998.nc | 26-Oct-2024 17:49 | 2521551 | ||
| 44011_TS_DEWT_121999.nc | 26-Oct-2024 17:49 | 428081 | ||
| 44011_TS_DEWT_122000.nc | 26-Oct-2024 17:49 | 428677 | ||
| 44011_TS_DEWT_122001.nc | 26-Oct-2024 17:49 | 418858 | ||
| 44011_TS_DEWT_122002.nc | 26-Oct-2024 17:49 | 418799 | ||
| 44011_TS_DEWT_122003.nc | 26-Oct-2024 17:49 | 424912 | ||
| 44011_TS_DEWT_122004.nc | 26-Oct-2024 17:49 | 439474 | ||
| 44011_TS_DEWT_122006.nc | 26-Oct-2024 17:49 | 438805 | ||
| 44011_TS_DEWT_122007.nc | 26-Oct-2024 17:49 | 438789 | ||
| 44011_TS_DEWT_122008.nc | 26-Oct-2024 17:49 | 438717 | ||
| 44011_TS_DEWT_122011.nc | 26-Oct-2024 17:49 | 438933 | ||
| 44011_TS_DEWT_122012.nc | 26-Oct-2024 17:49 | 438221 | ||
| 44011_TS_DEWT_122015.nc | 26-Oct-2024 17:49 | 438784 | ||
| 44011_TS_DEWT_122016.nc | 26-Oct-2024 17:49 | 477131 | ||
| 44011_TS_DEWT_122017.nc | 26-Oct-2024 17:49 | 421189 | ||
| 44011_TS_DEWT_122019.nc | 26-Oct-2024 17:49 | 2790828 | ||
| 44011_TS_DEWT_122021.nc | 26-Oct-2024 17:49 | 2146154 | ||
| 44011_TS_DEWT_122022.nc | 26-Oct-2024 17:50 | 421938 | ||
| 44011_TS_DEWT_122023.nc | 26-Oct-2024 17:50 | 429785 | ||
| 44011_TS_DEWT_122024.nc | 22-Jan-2025 16:18 | 429130 | ||
| 44011_TS_DEWT_122025.nc | 01-Jan-2026 06:00 | 429107 | ||